sensor_id;sensor_type;location;lat;lon;timestamp;temperature;humidity
22984;DHT22;11658;48.908;9.140;2023-08-30T04:00:40;13.30;99.90
22984;DHT22;11658;48.908;9.140;2023-08-30T04:03:08;13.40;99.90
22984;DHT22;11658;48.908;9.140;2023-08-30T04:05:37;13.40;99.90
22984;DHT22;11658;48.908;9.140;2023-08-30T04:08:05;13.40;99.90
22984;DHT22;11658;48.908;9.140;2023-08-30T04:10:35;13.40;99.90
22984;DHT22;11658;48.908;9.140;2023-08-30T04:13:02;13.40;99.90
22984;DHT22;11658;48.908;9.140;2023-08-30T04:15:27;13.40;99.90
22984;DHT22;11658;48.908;9.140;2023-08-30T04:17:53;13.40;99.90
22984;DHT22;11658;48.908;9.140;2023-08-30T04:20:18;13.30;99.90
22984;DHT22;11658;48.908;9.140;2023-08-30T04:22:44;13.50;99.90
22984;DHT22;11658;48.908;9.140;2023-08-30T04:25:09;13.50;99.90
22984;DHT22;11658;48.908;9.140;2023-08-30T04:27:35;13.60;99.90
22984;DHT22;11658;48.908;9.140;2023-08-30T04:30:02;13.50;99.90
22984;DHT22;11658;48.908;9.140;2023-08-30T04:32:27;13.50;99.90
22984;DHT22;11658;48.908;9.140;2023-08-30T04:34:53;13.40;99.90
22984;DHT22;11658;48.908;9.140;2023-08-30T04:37:18;13.30;99.90
22984;DHT22;11658;48.908;9.140;2023-08-30T04:39:47;13.20;99.90
22984;DHT22;11658;48.908;9.140;2023-08-30T04:42:14;13.00;99.90
22984;DHT22;11658;48.908;9.140;2023-08-30T04:44:39;12.90;99.90
22984;DHT22;11658;48.908;9.140;2023-08-30T04:47:05;12.90;99.90
22984;DHT22;11658;48.908;9.140;2023-08-30T04:49:31;12.90;99.90
22984;DHT22;11658;48.908;9.140;2023-08-30T04:51:56;13.00;99.90
22984;DHT22;11658;48.908;9.140;2023-08-30T04:54:22;13.00;99.90
22984;DHT22;11658;48.908;9.140;2023-08-30T04:56:47;13.10;99.90
22984;DHT22;11658;48.908;9.140;2023-08-30T04:59:13;13.10;99.90
22984;DHT22;11658;48.908;9.140;2023-08-30T05:01:38;13.20;99.90
22984;DHT22;11658;48.908;9.140;2023-08-30T05:04:07;13.30;99.90
22984;DHT22;11658;48.908;9.140;2023-08-30T05:06:33;13.40;99.90
22984;DHT22;11658;48.908;9.140;2023-08-30T05:08:58;13.50;99.90
22984;DHT22;11658;48.908;9.140;2023-08-30T05:11:24;13.50;99.90
22984;DHT22;11658;48.908;9.140;2023-08-30T05:13:49;13.60;99.90
22984;DHT22;11658;48.908;9.140;2023-08-30T05:16:15;13.70;99.90
22984;DHT22;11658;48.908;9.140;2023-08-30T05:18:41;13.70;99.90
22984;DHT22;11658;48.908;9.140;2023-08-30T05:21:06;13.70;99.90
22984;DHT22;11658;48.908;9.140;2023-08-30T05:23:32;13.80;99.90
22984;DHT22;11658;48.908;9.140;2023-08-30T05:25:57;13.80;99.90
22984;DHT22;11658;48.908;9.140;2023-08-30T05:28:23;13.80;99.90
22984;DHT22;11658;48.908;9.140;2023-08-30T05:30:49;13.80;99.90
22984;DHT22;11658;48.908;9.140;2023-08-30T05:33:14;13.90;99.90
22984;DHT22;11658;48.908;9.140;2023-08-30T05:35:40;13.90;99.90
22984;DHT22;11658;48.908;9.140;2023-08-30T05:38:06;13.90;99.90
22984;DHT22;11658;48.908;9.140;2023-08-30T05:40:31;14.00;99.90
22984;DHT22;11658;48.908;9.140;2023-08-30T05:42:57;14.00;99.90
22984;DHT22;11658;48.908;9.140;2023-08-30T05:45:23;14.10;99.90
22984;DHT22;11658;48.908;9.140;2023-08-30T05:47:51;14.10;99.90
22984;DHT22;11658;48.908;9.140;2023-08-30T05:50:16;14.00;99.90
22984;DHT22;11658;48.908;9.140;2023-08-30T05:52:42;14.00;99.90
22984;DHT22;11658;48.908;9.140;2023-08-30T05:55:10;14.10;99.90
22984;DHT22;11658;48.908;9.140;2023-08-30T05:57:35;14.30;99.90
22984;DHT22;11658;48.908;9.140;2023-08-30T06:00:01;14.30;99.90
22984;DHT22;11658;48.908;9.140;2023-08-30T06:02:27;14.40;99.90
22984;DHT22;11658;48.908;9.140;2023-08-30T06:04:52;14.50;99.90
22984;DHT22;11658;48.908;9.140;2023-08-30T06:07:18;14.60;99.90
22984;DHT22;11658;48.908;9.140;2023-08-30T06:09:44;14.60;99.90
22984;DHT22;11658;48.908;9.140;2023-08-30T06:12:10;14.60;99.90
22984;DHT22;11658;48.908;9.140;2023-08-30T06:14:35;14.60;99.90
22984;DHT22;11658;48.908;9.140;2023-08-30T06:17:01;14.70;99.90
22984;DHT22;11658;48.908;9.140;2023-08-30T06:19:27;14.70;99.90
22984;DHT22;11658;48.908;9.140;2023-08-30T06:21:53;14.70;99.90
22984;DHT22;11658;48.908;9.140;2023-08-30T06:24:19;14.80;99.90
22984;DHT22;11658;48.908;9.140;2023-08-30T06:26:44;14.90;99.90
22984;DHT22;11658;48.908;9.140;2023-08-30T06:29:10;15.00;99.90
22984;DHT22;11658;48.908;9.140;2023-08-30T06:31:35;15.10;99.90
22984;DHT22;11658;48.908;9.140;2023-08-30T06:34:01;15.10;99.90
22984;DHT22;11658;48.908;9.140;2023-08-30T06:36:26;15.20;99.90
22984;DHT22;11658;48.908;9.140;2023-08-30T06:38:52;15.30;99.90
22984;DHT22;11658;48.908;9.140;2023-08-30T06:41:17;15.50;99.90
22984;DHT22;11658;48.908;9.140;2023-08-30T06:43:43;15.60;99.90
22984;DHT22;11658;48.908;9.140;2023-08-30T06:46:09;15.70;99.90
22984;DHT22;11658;48.908;9.140;2023-08-30T06:48:34;15.50;99.90
22984;DHT22;11658;48.908;9.140;2023-08-30T06:51:00;15.50;99.90
22984;DHT22;11658;48.908;9.140;2023-08-30T06:53:28;15.40;99.90
22984;DHT22;11658;48.908;9.140;2023-08-30T06:56:01;15.30;99.90
22984;DHT22;11658;48.908;9.140;2023-08-30T06:58:27;15.60;99.90
22984;DHT22;11658;48.908;9.140;2023-08-30T07:00:53;15.80;99.90
22984;DHT22;11658;48.908;9.140;2023-08-30T07:03:19;15.90;99.90
22984;DHT22;11658;48.908;9.140;2023-08-30T07:05:44;16.00;99.90
22984;DHT22;11658;48.908;9.140;2023-08-30T07:08:15;16.10;99.90
22984;DHT22;11658;48.908;9.140;2023-08-30T07:10:41;16.20;99.90
22984;DHT22;11658;48.908;9.140;2023-08-30T07:13:06;16.30;99.90
22984;DHT22;11658;48.908;9.140;2023-08-30T07:15:36;16.30;99.90
22984;DHT22;11658;48.908;9.140;2023-08-30T07:18:02;16.50;99.90
22984;DHT22;11658;48.908;9.140;2023-08-30T07:20:29;16.60;99.90
22984;DHT22;11658;48.908;9.140;2023-08-30T07:22:54;16.60;99.90
22984;DHT22;11658;48.908;9.140;2023-08-30T07:25:20;16.50;99.90
22984;DHT22;11658;48.908;9.140;2023-08-30T07:27:45;16.50;99.90
22984;DHT22;11658;48.908;9.140;2023-08-30T07:30:11;16.30;99.90
22984;DHT22;11658;48.908;9.140;2023-08-30T07:32:37;16.20;99.90
22984;DHT22;11658;48.908;9.140;2023-08-30T07:35:04;16.30;99.90
22984;DHT22;11658;48.908;9.140;2023-08-30T07:37:29;16.30;99.90
22984;DHT22;11658;48.908;9.140;2023-08-30T07:39:55;16.40;99.90
22984;DHT22;11658;48.908;9.140;2023-08-30T07:42:21;16.60;99.90
22984;DHT22;11658;48.908;9.140;2023-08-30T07:44:46;16.60;99.90
22984;DHT22;11658;48.908;9.140;2023-08-30T07:47:12;16.80;99.90
22984;DHT22;11658;48.908;9.140;2023-08-30T07:49:37;16.70;99.90
22984;DHT22;11658;48.908;9.140;2023-08-30T07:52:03;16.80;99.90
22984;DHT22;11658;48.908;9.140;2023-08-30T07:54:30;16.70;99.90
22984;DHT22;11658;48.908;9.140;2023-08-30T07:56:56;16.70;99.90
22984;DHT22;11658;48.908;9.140;2023-08-30T07:59:21;16.50;99.90
22984;DHT22;11658;48.908;9.140;2023-08-30T08:01:47;16.60;99.90
22984;DHT22;11658;48.908;9.140;2023-08-30T08:04:13;16.70;99.90
22984;DHT22;11658;48.908;9.140;2023-08-30T08:06:38;16.60;99.90
22984;DHT22;11658;48.908;9.140;2023-08-30T08:09:05;16.70;99.90
22984;DHT22;11658;48.908;9.140;2023-08-30T08:11:31;16.80;99.90
22984;DHT22;11658;48.908;9.140;2023-08-30T08:13:57;16.90;99.90
22984;DHT22;11658;48.908;9.140;2023-08-30T08:16:22;17.00;99.90
22984;DHT22;11658;48.908;9.140;2023-08-30T08:18:48;16.90;99.90
22984;DHT22;11658;48.908;9.140;2023-08-30T08:21:14;16.80;99.90
22984;DHT22;11658;48.908;9.140;2023-08-30T08:23:40;16.70;99.90
22984;DHT22;11658;48.908;9.140;2023-08-30T08:26:05;16.70;99.90
22984;DHT22;11658;48.908;9.140;2023-08-30T08:28:33;16.80;99.90
22984;DHT22;11658;48.908;9.140;2023-08-30T08:30:58;16.90;99.90
22984;DHT22;11658;48.908;9.140;2023-08-30T08:33:24;16.90;99.90
22984;DHT22;11658;48.908;9.140;2023-08-30T08:35:50;17.10;99.90
22984;DHT22;11658;48.908;9.140;2023-08-30T08:38:16;17.10;99.90
22984;DHT22;11658;48.908;9.140;2023-08-30T08:40:41;17.20;99.90
22984;DHT22;11658;48.908;9.140;2023-08-30T08:43:10;17.40;99.90
22984;DHT22;11658;48.908;9.140;2023-08-30T08:45:36;17.60;99.90
22984;DHT22;11658;48.908;9.140;2023-08-30T08:48:05;17.80;99.90
22984;DHT22;11658;48.908;9.140;2023-08-30T08:50:32;17.80;99.90
22984;DHT22;11658;48.908;9.140;2023-08-30T08:52:58;18.00;99.90
22984;DHT22;11658;48.908;9.140;2023-08-30T08:55:26;18.10;99.90
22984;DHT22;11658;48.908;9.140;2023-08-30T08:57:53;18.20;99.90
22984;DHT22;11658;48.908;9.140;2023-08-30T09:00:19;18.40;99.90
22984;DHT22;11658;48.908;9.140;2023-08-30T09:02:45;18.40;99.90
22984;DHT22;11658;48.908;9.140;2023-08-30T09:05:11;18.50;99.90
22984;DHT22;11658;48.908;9.140;2023-08-30T09:07:37;18.70;99.90
22984;DHT22;11658;48.908;9.140;2023-08-30T09:10:03;18.70;99.90
22984;DHT22;11658;48.908;9.140;2023-08-30T09:12:32;18.50;99.90
22984;DHT22;11658;48.908;9.140;2023-08-30T09:14:58;18.60;99.90
22984;DHT22;11658;48.908;9.140;2023-08-30T09:17:34;18.60;99.90
22984;DHT22;11658;48.908;9.140;2023-08-30T09:20:09;18.60;99.90
22984;DHT22;11658;48.908;9.140;2023-08-30T09:22:39;18.70;99.90
22984;DHT22;11658;48.908;9.140;2023-08-30T09:25:08;18.80;99.90
22984;DHT22;11658;48.908;9.140;2023-08-30T09:27:34;19.00;99.90
22984;DHT22;11658;48.908;9.140;2023-08-30T09:30:00;19.10;99.90
22984;DHT22;11658;48.908;9.140;2023-08-30T09:32:25;19.20;99.90
22984;DHT22;11658;48.908;9.140;2023-08-30T09:34:51;19.50;99.90
22984;DHT22;11658;48.908;9.140;2023-08-30T09:37:21;19.60;99.90
22984;DHT22;11658;48.908;9.140;2023-08-30T09:39:50;19.60;99.90
22984;DHT22;11658;48.908;9.140;2023-08-30T09:42:19;19.70;99.90
22984;DHT22;11658;48.908;9.140;2023-08-30T09:44:45;19.70;99.90
22984;DHT22;11658;48.908;9.140;2023-08-30T09:47:12;19.70;99.90
22984;DHT22;11658;48.908;9.140;2023-08-30T09:49:45;19.60;99.90
22984;DHT22;11658;48.908;9.140;2023-08-30T09:52:15;19.70;99.90
22984;DHT22;11658;48.908;9.140;2023-08-30T09:54:42;19.70;99.90
22984;DHT22;11658;48.908;9.140;2023-08-30T09:57:10;19.70;99.90
22984;DHT22;11658;48.908;9.140;2023-08-30T09:59:36;19.70;99.90
22984;DHT22;11658;48.908;9.140;2023-08-30T10:02:03;19.90;99.90
22984;DHT22;11658;48.908;9.140;2023-08-30T10:04:31;20.10;99.90
22984;DHT22;11658;48.908;9.140;2023-08-30T10:06:58;19.90;99.90
22984;DHT22;11658;48.908;9.140;2023-08-30T10:09:24;20.00;99.90
22984;DHT22;11658;48.908;9.140;2023-08-30T10:11:50;20.30;99.90
22984;DHT22;11658;48.908;9.140;2023-08-30T10:14:16;20.50;99.90
22984;DHT22;11658;48.908;9.140;2023-08-30T10:16:44;20.70;99.90
22984;DHT22;11658;48.908;9.140;2023-08-30T10:19:25;20.80;99.90
22984;DHT22;11658;48.908;9.140;2023-08-30T10:22:05;20.90;99.90
22984;DHT22;11658;48.908;9.140;2023-08-30T10:24:41;20.80;99.90
22984;DHT22;11658;48.908;9.140;2023-08-30T10:27:08;20.80;99.90
22984;DHT22;11658;48.908;9.140;2023-08-30T10:29:35;21.00;99.90
22984;DHT22;11658;48.908;9.140;2023-08-30T10:32:05;20.90;99.90
22984;DHT22;11658;48.908;9.140;2023-08-30T10:34:32;20.80;99.90
22984;DHT22;11658;48.908;9.140;2023-08-30T10:37:03;20.80;99.90
22984;DHT22;11658;48.908;9.140;2023-08-30T10:39:39;20.80;99.90
22984;DHT22;11658;48.908;9.140;2023-08-30T10:42:13;20.60;99.90
22984;DHT22;11658;48.908;9.140;2023-08-30T10:44:48;20.40;99.90
22984;DHT22;11658;48.908;9.140;2023-08-30T10:49:49;20.70;99.90
22984;DHT22;11658;48.908;9.140;2023-08-30T10:52:15;20.50;99.90
22984;DHT22;11658;48.908;9.140;2023-08-30T10:54:40;20.40;99.90
22984;DHT22;11658;48.908;9.140;2023-08-30T10:57:13;20.50;99.90
22984;DHT22;11658;48.908;9.140;2023-08-30T10:59:39;20.40;99.90
22984;DHT22;11658;48.908;9.140;2023-08-30T11:02:06;20.50;99.90
22984;DHT22;11658;48.908;9.140;2023-08-30T11:04:32;20.40;99.90
22984;DHT22;11658;48.908;9.140;2023-08-30T11:06:57;20.50;99.90
22984;DHT22;11658;48.908;9.140;2023-08-30T11:09:24;20.50;99.90
22984;DHT22;11658;48.908;9.140;2023-08-30T11:11:50;20.30;99.90
22984;DHT22;11658;48.908;9.140;2023-08-30T11:14:17;20.00;99.90
22984;DHT22;11658;48.908;9.140;2023-08-30T11:16:43;20.00;99.90
22984;DHT22;11658;48.908;9.140;2023-08-30T11:19:10;20.10;99.90
22984;DHT22;11658;48.908;9.140;2023-08-30T11:21:39;20.00;99.90
22984;DHT22;11658;48.908;9.140;2023-08-30T11:24:06;19.80;99.90
22984;DHT22;11658;48.908;9.140;2023-08-30T11:26:32;20.00;99.90
22984;DHT22;11658;48.908;9.140;2023-08-30T11:29:03;19.70;99.90
22984;DHT22;11658;48.908;9.140;2023-08-30T11:31:28;19.50;99.90
22984;DHT22;11658;48.908;9.140;2023-08-30T11:33:56;19.20;99.90
22984;DHT22;11658;48.908;9.140;2023-08-30T11:36:25;19.20;99.90
22984;DHT22;11658;48.908;9.140;2023-08-30T11:38:51;19.20;99.90
22984;DHT22;11658;48.908;9.140;2023-08-30T11:41:17;19.40;99.90
22984;DHT22;11658;48.908;9.140;2023-08-30T11:43:45;19.70;99.90
22984;DHT22;11658;48.908;9.140;2023-08-30T11:46:10;20.00;99.90
22984;DHT22;11658;48.908;9.140;2023-08-30T11:48:39;20.00;99.90
22984;DHT22;11658;48.908;9.140;2023-08-30T11:51:05;20.10;99.90
22984;DHT22;11658;48.908;9.140;2023-08-30T11:53:31;20.10;99.90
22984;DHT22;11658;48.908;9.140;2023-08-30T11:55:57;20.10;99.90
22984;DHT22;11658;48.908;9.140;2023-08-30T11:58:23;20.00;99.90
22984;DHT22;11658;48.908;9.140;2023-08-30T12:00:52;20.10;99.90
22984;DHT22;11658;48.908;9.140;2023-08-30T12:03:22;20.00;99.90
22984;DHT22;11658;48.908;9.140;2023-08-30T12:05:50;20.00;99.90
22984;DHT22;11658;48.908;9.140;2023-08-30T12:08:25;19.90;99.90
22984;DHT22;11658;48.908;9.140;2023-08-30T12:10:51;19.70;99.90
22984;DHT22;11658;48.908;9.140;2023-08-30T12:15:50;19.90;99.90
22984;DHT22;11658;48.908;9.140;2023-08-30T12:18:15;20.00;99.90
22984;DHT22;11658;48.908;9.140;2023-08-30T12:20:51;19.80;99.90
22984;DHT22;11658;48.908;9.140;2023-08-30T12:23:24;19.70;99.90
22984;DHT22;11658;48.908;9.140;2023-08-30T12:26:00;19.70;99.90
22984;DHT22;11658;48.908;9.140;2023-08-30T12:28:27;19.90;99.90
22984;DHT22;11658;48.908;9.140;2023-08-30T12:30:53;20.20;99.90
22984;DHT22;11658;48.908;9.140;2023-08-30T12:33:19;20.30;99.90
22984;DHT22;11658;48.908;9.140;2023-08-30T12:35:45;20.40;99.90
22984;DHT22;11658;48.908;9.140;2023-08-30T12:38:11;20.60;99.90
22984;DHT22;11658;48.908;9.140;2023-08-30T12:40:47;20.80;99.90
22984;DHT22;11658;48.908;9.140;2023-08-30T12:43:14;20.90;99.90
22984;DHT22;11658;48.908;9.140;2023-08-30T12:45:41;20.90;99.90
22984;DHT22;11658;48.908;9.140;2023-08-30T12:48:07;21.20;99.90
22984;DHT22;11658;48.908;9.140;2023-08-30T12:50:34;21.50;99.90
22984;DHT22;11658;48.908;9.140;2023-08-30T12:53:01;21.70;99.90
22984;DHT22;11658;48.908;9.140;2023-08-30T12:55:26;21.90;99.90
22984;DHT22;11658;48.908;9.140;2023-08-30T12:57:52;22.20;99.90
22984;DHT22;11658;48.908;9.140;2023-08-30T13:00:18;22.30;99.90
22984;DHT22;11658;48.908;9.140;2023-08-30T13:02:45;22.40;99.90
22984;DHT22;11658;48.908;9.140;2023-08-30T13:05:10;22.60;99.90
22984;DHT22;11658;48.908;9.140;2023-08-30T13:07:36;22.70;99.90
22984;DHT22;11658;48.908;9.140;2023-08-30T13:10:02;22.50;99.90
22984;DHT22;11658;48.908;9.140;2023-08-30T13:12:28;22.30;99.90
22984;DHT22;11658;48.908;9.140;2023-08-30T13:14:53;22.60;99.90
22984;DHT22;11658;48.908;9.140;2023-08-30T13:17:20;22.70;99.90
22984;DHT22;11658;48.908;9.140;2023-08-30T13:19:45;22.70;99.90
22984;DHT22;11658;48.908;9.140;2023-08-30T13:22:11;22.70;99.90
22984;DHT22;11658;48.908;9.140;2023-08-30T13:24:37;22.60;99.90
22984;DHT22;11658;48.908;9.140;2023-08-30T13:27:03;22.70;99.90
22984;DHT22;11658;48.908;9.140;2023-08-30T13:29:29;22.50;99.90
22984;DHT22;11658;48.908;9.140;2023-08-30T13:31:55;22.90;99.90
22984;DHT22;11658;48.908;9.140;2023-08-30T13:34:20;22.70;99.90
22984;DHT22;11658;48.908;9.140;2023-08-30T13:36:46;22.60;99.90
22984;DHT22;11658;48.908;9.140;2023-08-30T13:39:12;22.30;99.90
22984;DHT22;11658;48.908;9.140;2023-08-30T13:41:37;22.30;99.90
22984;DHT22;11658;48.908;9.140;2023-08-30T13:44:03;22.20;99.90
22984;DHT22;11658;48.908;9.140;2023-08-30T13:46:29;22.20;99.90
22984;DHT22;11658;48.908;9.140;2023-08-30T13:48:55;22.30;99.90
22984;DHT22;11658;48.908;9.140;2023-08-30T13:51:25;22.30;99.90
22984;DHT22;11658;48.908;9.140;2023-08-30T13:53:51;22.20;99.90
22984;DHT22;11658;48.908;9.140;2023-08-30T13:56:18;22.10;99.90
22984;DHT22;11658;48.908;9.140;2023-08-30T13:58:44;22.20;99.90
22984;DHT22;11658;48.908;9.140;2023-08-30T14:01:10;22.10;99.90
22984;DHT22;11658;48.908;9.140;2023-08-30T14:03:36;21.90;99.90
22984;DHT22;11658;48.908;9.140;2023-08-30T14:06:01;21.90;99.90
22984;DHT22;11658;48.908;9.140;2023-08-30T14:08:27;21.80;99.90
22984;DHT22;11658;48.908;9.140;2023-08-30T14:10:52;21.70;99.90
22984;DHT22;11658;48.908;9.140;2023-08-30T14:13:19;21.60;99.90
22984;DHT22;11658;48.908;9.140;2023-08-30T14:15:45;21.60;99.90
22984;DHT22;11658;48.908;9.140;2023-08-30T14:18:10;21.70;99.90
22984;DHT22;11658;48.908;9.140;2023-08-30T14:20:36;21.80;99.90
22984;DHT22;11658;48.908;9.140;2023-08-30T14:23:02;21.80;99.90
22984;DHT22;11658;48.908;9.140;2023-08-30T14:25:28;21.60;99.90
22984;DHT22;11658;48.908;9.140;2023-08-30T14:27:54;21.40;99.90
22984;DHT22;11658;48.908;9.140;2023-08-30T14:30:20;21.30;99.90
22984;DHT22;11658;48.908;9.140;2023-08-30T14:32:46;21.30;99.90
22984;DHT22;11658;48.908;9.140;2023-08-30T14:35:12;21.30;99.90
22984;DHT22;11658;48.908;9.140;2023-08-30T14:37:37;21.50;99.90
22984;DHT22;11658;48.908;9.140;2023-08-30T14:40:05;21.60;99.90
22984;DHT22;11658;48.908;9.140;2023-08-30T14:42:31;21.60;99.90
22984;DHT22;11658;48.908;9.140;2023-08-30T14:44:57;21.70;99.90
22984;DHT22;11658;48.908;9.140;2023-08-30T14:47:23;21.70;99.90
22984;DHT22;11658;48.908;9.140;2023-08-30T14:49:48;21.80;99.90
22984;DHT22;11658;48.908;9.140;2023-08-30T14:52:14;21.80;99.90
22984;DHT22;11658;48.908;9.140;2023-08-30T14:54:40;21.70;99.90
22984;DHT22;11658;48.908;9.140;2023-08-30T14:57:06;21.90;99.90
22984;DHT22;11658;48.908;9.140;2023-08-30T14:59:32;21.70;99.90
22984;DHT22;11658;48.908;9.140;2023-08-30T15:01:58;21.40;99.90
22984;DHT22;11658;48.908;9.140;2023-08-30T15:04:23;21.50;99.90
22984;DHT22;11658;48.908;9.140;2023-08-30T15:06:49;21.40;99.90
22984;DHT22;11658;48.908;9.140;2023-08-30T15:09:14;21.20;99.90
22984;DHT22;11658;48.908;9.140;2023-08-30T15:11:42;21.10;99.90
22984;DHT22;11658;48.908;9.140;2023-08-30T15:14:08;21.00;99.90
22984;DHT22;11658;48.908;9.140;2023-08-30T15:16:34;21.10;99.90
22984;DHT22;11658;48.908;9.140;2023-08-30T15:19:00;21.10;99.90
22984;DHT22;11658;48.908;9.140;2023-08-30T15:21:26;21.30;99.90
22984;DHT22;11658;48.908;9.140;2023-08-30T15:23:51;21.20;99.90
22984;DHT22;11658;48.908;9.140;2023-08-30T15:26:17;21.30;99.90
22984;DHT22;11658;48.908;9.140;2023-08-30T15:28:46;21.40;99.90
22984;DHT22;11658;48.908;9.140;2023-08-30T15:31:18;21.50;99.90
22984;DHT22;11658;48.908;9.140;2023-08-30T15:33:46;21.40;99.90
22984;DHT22;11658;48.908;9.140;2023-08-30T15:36:13;21.40;99.90
22984;DHT22;11658;48.908;9.140;2023-08-30T15:38:38;21.20;99.90
22984;DHT22;11658;48.908;9.140;2023-08-30T15:41:09;20.90;99.90
22984;DHT22;11658;48.908;9.140;2023-08-30T15:43:34;20.60;99.90
22984;DHT22;11658;48.908;9.140;2023-08-30T15:46:13;20.50;99.90
22984;DHT22;11658;48.908;9.140;2023-08-30T15:48:40;20.60;99.90
22984;DHT22;11658;48.908;9.140;2023-08-30T15:51:06;20.70;99.90
22984;DHT22;11658;48.908;9.140;2023-08-30T15:53:32;20.90;99.90
22984;DHT22;11658;48.908;9.140;2023-08-30T15:55:57;21.10;99.90
22984;DHT22;11658;48.908;9.140;2023-08-30T15:58:23;21.10;99.90
22984;DHT22;11658;48.908;9.140;2023-08-30T16:00:49;21.10;99.90
22984;DHT22;11658;48.908;9.140;2023-08-30T16:03:15;21.00;99.90
22984;DHT22;11658;48.908;9.140;2023-08-30T16:05:42;20.90;99.90
22984;DHT22;11658;48.908;9.140;2023-08-30T16:08:11;20.60;99.90
22984;DHT22;11658;48.908;9.140;2023-08-30T16:10:37;20.60;99.90
22984;DHT22;11658;48.908;9.140;2023-08-30T16:13:03;20.60;99.90
22984;DHT22;11658;48.908;9.140;2023-08-30T16:15:29;20.60;99.90
22984;DHT22;11658;48.908;9.140;2023-08-30T16:17:55;20.70;99.90
22984;DHT22;11658;48.908;9.140;2023-08-30T16:20:22;20.70;99.90
22984;DHT22;11658;48.908;9.140;2023-08-30T16:22:52;20.70;99.90
22984;DHT22;11658;48.908;9.140;2023-08-30T16:25:18;20.70;99.90
22984;DHT22;11658;48.908;9.140;2023-08-30T16:27:44;20.60;99.90
22984;DHT22;11658;48.908;9.140;2023-08-30T16:30:10;20.60;99.90
22984;DHT22;11658;48.908;9.140;2023-08-30T16:32:36;20.60;99.90
22984;DHT22;11658;48.908;9.140;2023-08-30T16:35:01;20.60;99.90
22984;DHT22;11658;48.908;9.140;2023-08-30T16:37:27;20.70;99.90
22984;DHT22;11658;48.908;9.140;2023-08-30T16:39:53;20.80;99.90
22984;DHT22;11658;48.908;9.140;2023-08-30T16:42:19;21.10;99.90
22984;DHT22;11658;48.908;9.140;2023-08-30T16:44:46;21.70;99.90
22984;DHT22;11658;48.908;9.140;2023-08-30T16:47:11;22.40;99.90
22984;DHT22;11658;48.908;9.140;2023-08-30T16:49:37;22.60;99.90
22984;DHT22;11658;48.908;9.140;2023-08-30T16:52:03;22.20;99.90
22984;DHT22;11658;48.908;9.140;2023-08-30T16:54:28;21.70;99.90
22984;DHT22;11658;48.908;9.140;2023-08-30T16:56:54;21.40;99.90
22984;DHT22;11658;48.908;9.140;2023-08-30T16:59:19;21.40;99.90
22984;DHT22;11658;48.908;9.140;2023-08-30T17:01:45;21.60;99.90
22984;DHT22;11658;48.908;9.140;2023-08-30T17:04:11;21.90;99.90
22984;DHT22;11658;48.908;9.140;2023-08-30T17:06:39;21.60;99.90
22984;DHT22;11658;48.908;9.140;2023-08-30T17:09:05;21.30;99.90
22984;DHT22;11658;48.908;9.140;2023-08-30T17:11:32;21.00;99.90
22984;DHT22;11658;48.908;9.140;2023-08-30T17:14:11;20.70;99.90
22984;DHT22;11658;48.908;9.140;2023-08-30T17:16:37;20.20;99.90
22984;DHT22;11658;48.908;9.140;2023-08-30T17:19:04;19.90;99.90
22984;DHT22;11658;48.908;9.140;2023-08-30T17:21:29;19.70;99.90
22984;DHT22;11658;48.908;9.140;2023-08-30T17:23:55;19.60;99.90
22984;DHT22;11658;48.908;9.140;2023-08-30T17:26:21;19.50;99.90
22984;DHT22;11658;48.908;9.140;2023-08-30T17:28:47;19.50;99.90
22984;DHT22;11658;48.908;9.140;2023-08-30T17:31:13;19.30;99.90
22984;DHT22;11658;48.908;9.140;2023-08-30T17:33:39;19.30;99.90
22984;DHT22;11658;48.908;9.140;2023-08-30T17:36:05;19.10;99.90
22984;DHT22;11658;48.908;9.140;2023-08-30T17:38:31;19.10;99.90
22984;DHT22;11658;48.908;9.140;2023-08-30T17:40:57;19.00;99.90
22984;DHT22;11658;48.908;9.140;2023-08-30T17:43:23;18.90;99.90
22984;DHT22;11658;48.908;9.140;2023-08-30T17:45:48;18.90;99.90
22984;DHT22;11658;48.908;9.140;2023-08-30T17:48:14;18.90;99.90
22984;DHT22;11658;48.908;9.140;2023-08-30T17:50:44;18.90;99.90
22984;DHT22;11658;48.908;9.140;2023-08-30T17:53:10;18.90;99.90
22984;DHT22;11658;48.908;9.140;2023-08-30T17:55:38;18.80;99.90
22984;DHT22;11658;48.908;9.140;2023-08-30T17:58:04;18.80;99.90
22984;DHT22;11658;48.908;9.140;2023-08-30T18:00:30;18.70;99.90
22984;DHT22;11658;48.908;9.140;2023-08-30T18:02:56;18.50;99.90
22984;DHT22;11658;48.908;9.140;2023-08-30T18:05:22;18.40;99.90
22984;DHT22;11658;48.908;9.140;2023-08-30T18:07:50;18.30;99.90
22984;DHT22;11658;48.908;9.140;2023-08-30T18:10:20;18.20;99.90
22984;DHT22;11658;48.908;9.140;2023-08-30T18:12:45;18.10;99.90
22984;DHT22;11658;48.908;9.140;2023-08-30T18:15:11;18.00;99.90
22984;DHT22;11658;48.908;9.140;2023-08-30T18:17:36;17.90;99.90
22984;DHT22;11658;48.908;9.140;2023-08-30T18:20:03;17.80;99.90
22984;DHT22;11658;48.908;9.140;2023-08-30T18:22:32;17.80;99.90
22984;DHT22;11658;48.908;9.140;2023-08-30T18:24:57;17.80;99.90
22984;DHT22;11658;48.908;9.140;2023-08-30T18:27:23;17.80;99.90
22984;DHT22;11658;48.908;9.140;2023-08-30T18:29:48;17.80;99.90
22984;DHT22;11658;48.908;9.140;2023-08-30T18:32:14;17.80;99.90
22984;DHT22;11658;48.908;9.140;2023-08-30T18:34:40;17.80;99.90
22984;DHT22;11658;48.908;9.140;2023-08-30T18:37:07;17.70;99.90
22984;DHT22;11658;48.908;9.140;2023-08-30T18:39:34;17.70;99.90
22984;DHT22;11658;48.908;9.140;2023-08-30T18:42:00;17.70;99.90
22984;DHT22;11658;48.908;9.140;2023-08-30T18:44:25;17.70;99.90
22984;DHT22;11658;48.908;9.140;2023-08-30T18:46:51;17.50;99.90
22984;DHT22;11658;48.908;9.140;2023-08-30T18:49:17;17.40;99.90
22984;DHT22;11658;48.908;9.140;2023-08-30T18:51:43;17.30;99.90
22984;DHT22;11658;48.908;9.140;2023-08-30T18:54:09;17.20;99.90
22984;DHT22;11658;48.908;9.140;2023-08-30T18:56:36;17.10;99.90
22984;DHT22;11658;48.908;9.140;2023-08-30T18:59:02;17.10;99.90
22984;DHT22;11658;48.908;9.140;2023-08-30T19:01:30;17.20;99.90
22984;DHT22;11658;48.908;9.140;2023-08-30T19:03:56;17.20;99.90
22984;DHT22;11658;48.908;9.140;2023-08-30T19:06:22;17.20;99.90
22984;DHT22;11658;48.908;9.140;2023-08-30T19:08:48;17.30;99.90
22984;DHT22;11658;48.908;9.140;2023-08-30T19:11:16;17.40;99.90
22984;DHT22;11658;48.908;9.140;2023-08-30T19:13:42;17.30;99.90
22984;DHT22;11658;48.908;9.140;2023-08-30T19:16:08;17.40;99.90
22984;DHT22;11658;48.908;9.140;2023-08-30T19:18:34;17.30;99.90
22984;DHT22;11658;48.908;9.140;2023-08-30T19:21:00;17.30;99.90
22984;DHT22;11658;48.908;9.140;2023-08-30T19:23:28;17.30;99.90
22984;DHT22;11658;48.908;9.140;2023-08-30T19:25:54;17.30;99.90
22984;DHT22;11658;48.908;9.140;2023-08-30T19:28:21;17.20;99.90
22984;DHT22;11658;48.908;9.140;2023-08-30T19:30:48;17.20;99.90